Portada
METAR-TAF:

METAR-TAF

Aeroports :

Timimoun, Algèria

latitud: 29-15N, longitud: 000-17E, altitud: 312 m

METAR: manca

Hora: 23:05 (22:05 UTC)

Pronòstic

L'informe es va fer fa 2 hores i 5 minuts, a les 20:00 UTC
Pronòstic vàlid del 12 a les 21 UTC al 13 a les 06 UTC
Vent 15 kt del Nord-Est
Visibilitat 10 km o més
sense núvols per sota de 1500 mi sense presència de cumulonimbus.

TAF: DAUT 122000Z 1221/1306 04015KT CAVOK

Observacions i pronòstics meteorològics de més de 4000 aeroports (METAR i TAF).

Les estacions disponibles són els punts grocs i vermells al mapa.

Posi el ratolí al punt desitjat per veure el nom de l'estació.

Feu clic per veure les observacions i els pronòstics meteorològics.

Per canviar el mapa: feu clic els botons verds amb una creu de color negre per apropar; al botó verd amb un guió per allunyar la imatge; o en les fletxes verdes per a mapes adjacents.


METAR-TAF: